sensor_id;sensor_type;location;lat;lon;timestamp;pressure;altitude;pressure_sealevel;temperature;humidity
50682;BME280;36779;52.168;20.878;2022-12-29T00:00:21;100260.98;;;4.92;78.33
50682;BME280;36779;52.168;20.878;2022-12-29T00:03:09;100259.54;;;4.91;78.34
50682;BME280;36779;52.168;20.878;2022-12-29T00:05:37;100262.52;;;4.89;78.30
50682;BME280;36779;52.168;20.878;2022-12-29T00:08:05;100263.37;;;4.87;78.22
50682;BME280;36779;52.168;20.878;2022-12-29T00:10:33;100259.74;;;4.84;78.29
50682;BME280;36779;52.168;20.878;2022-12-29T00:13:01;100259.83;;;4.83;78.32
50682;BME280;36779;52.168;20.878;2022-12-29T00:15:47;100253.66;;;4.81;78.25
50682;BME280;36779;52.168;20.878;2022-12-29T00:18:15;100250.96;;;4.80;78.20
50682;BME280;36779;52.168;20.878;2022-12-29T00:20:44;100251.60;;;4.78;78.17
50682;BME280;36779;52.168;20.878;2022-12-29T00:23:30;100248.91;;;4.79;78.20
50682;BME280;36779;52.168;20.878;2022-12-29T00:26:17;100252.91;;;4.82;78.26
50682;BME280;36779;52.168;20.878;2022-12-29T00:29:03;100253.30;;;4.85;78.26
50682;BME280;36779;52.168;20.878;2022-12-29T00:31:49;100252.67;;;4.91;78.30
50682;BME280;36779;52.168;20.878;2022-12-29T00:34:36;100254.46;;;4.94;78.29
50682;BME280;36779;52.168;20.878;2022-12-29T00:37:22;100254.74;;;4.98;78.35
50682;BME280;36779;52.168;20.878;2022-12-29T00:40:10;100253.02;;;5.00;78.31
50682;BME280;36779;52.168;20.878;2022-12-29T00:42:58;100258.66;;;4.99;78.33
50682;BME280;36779;52.168;20.878;2022-12-29T00:45:45;100261.27;;;4.99;78.42
50682;BME280;36779;52.168;20.878;2022-12-29T00:48:13;100261.95;;;5.00;78.33
50682;BME280;36779;52.168;20.878;2022-12-29T00:50:41;100261.23;;;5.00;78.26
50682;BME280;36779;52.168;20.878;2022-12-29T00:53:08;100257.15;;;5.00;78.32
50682;BME280;36779;52.168;20.878;2022-12-29T00:55:37;100252.25;;;5.00;78.24
50682;BME280;36779;52.168;20.878;2022-12-29T00:58:05;100253.46;;;5.01;78.21
50682;BME280;36779;52.168;20.878;2022-12-29T01:00:34;100249.25;;;5.00;78.28
50682;BME280;36779;52.168;20.878;2022-12-29T01:03:02;100247.48;;;5.00;78.25
50682;BME280;36779;52.168;20.878;2022-12-29T01:05:30;100246.46;;;5.00;78.24
50682;BME280;36779;52.168;20.878;2022-12-29T01:07:58;100247.55;;;4.99;78.26
50682;BME280;36779;52.168;20.878;2022-12-29T01:10:26;100243.45;;;5.00;78.26
50682;BME280;36779;52.168;20.878;2022-12-29T01:12:54;100242.80;;;5.01;78.19
50682;BME280;36779;52.168;20.878;2022-12-29T01:15:22;100237.84;;;5.04;78.16
50682;BME280;36779;52.168;20.878;2022-12-29T01:17:49;100235.52;;;5.06;78.11
50682;BME280;36779;52.168;20.878;2022-12-29T01:20:17;100228.95;;;5.09;78.18
50682;BME280;36779;52.168;20.878;2022-12-29T01:22:45;100224.00;;;5.11;78.12
50682;BME280;36779;52.168;20.878;2022-12-29T01:25:14;100219.22;;;5.11;78.14
50682;BME280;36779;52.168;20.878;2022-12-29T01:27:42;100219.45;;;5.11;78.18
50682;BME280;36779;52.168;20.878;2022-12-29T01:30:11;100212.45;;;5.10;78.15
50682;BME280;36779;52.168;20.878;2022-12-29T01:32:40;100210.23;;;5.08;78.16
50682;BME280;36779;52.168;20.878;2022-12-29T01:35:08;100207.61;;;5.05;78.13
50682;BME280;36779;52.168;20.878;2022-12-29T01:37:37;100202.23;;;5.02;78.12
50682;BME280;36779;52.168;20.878;2022-12-29T01:40:06;100196.04;;;4.98;78.01
50682;BME280;36779;52.168;20.878;2022-12-29T01:42:34;100196.45;;;4.95;78.03
50682;BME280;36779;52.168;20.878;2022-12-29T01:45:02;100194.38;;;4.93;78.06
50682;BME280;36779;52.168;20.878;2022-12-29T01:47:36;100199.19;;;4.90;77.97
50682;BME280;36779;52.168;20.878;2022-12-29T01:50:08;100193.27;;;4.87;78.06
50682;BME280;36779;52.168;20.878;2022-12-29T01:52:37;100190.70;;;4.84;77.97
50682;BME280;36779;52.168;20.878;2022-12-29T01:55:08;100190.95;;;4.84;77.99
50682;BME280;36779;52.168;20.878;2022-12-29T01:57:38;100181.69;;;4.83;77.94
50682;BME280;36779;52.168;20.878;2022-12-29T02:00:09;100184.09;;;4.83;78.00
50682;BME280;36779;52.168;20.878;2022-12-29T02:02:41;100176.23;;;4.85;77.93
50682;BME280;36779;52.168;20.878;2022-12-29T02:05:11;100178.34;;;4.87;77.91
50682;BME280;36779;52.168;20.878;2022-12-29T02:07:41;100167.07;;;4.87;77.87
50682;BME280;36779;52.168;20.878;2022-12-29T02:10:10;100153.88;;;4.86;77.95
50682;BME280;36779;52.168;20.878;2022-12-29T02:12:38;100163.96;;;4.84;77.94
50682;BME280;36779;52.168;20.878;2022-12-29T02:15:07;100178.40;;;4.82;77.85
50682;BME280;36779;52.168;20.878;2022-12-29T02:17:40;100184.75;;;4.80;77.97
50682;BME280;36779;52.168;20.878;2022-12-29T02:20:22;100186.65;;;4.76;77.87
50682;BME280;36779;52.168;20.878;2022-12-29T02:22:59;100183.59;;;4.72;77.88
50682;BME280;36779;52.168;20.878;2022-12-29T02:25:36;100182.16;;;4.69;77.86
50682;BME280;36779;52.168;20.878;2022-12-29T02:28:16;100183.11;;;4.66;77.76
50682;BME280;36779;52.168;20.878;2022-12-29T02:30:58;100186.83;;;4.64;77.77
50682;BME280;36779;52.168;20.878;2022-12-29T02:33:36;100186.30;;;4.64;77.73
50682;BME280;36779;52.168;20.878;2022-12-29T02:36:09;100190.92;;;4.63;77.73
50682;BME280;36779;52.168;20.878;2022-12-29T02:38:45;100191.49;;;4.65;77.87
50682;BME280;36779;52.168;20.878;2022-12-29T02:41:19;100191.63;;;4.65;77.78
50682;BME280;36779;52.168;20.878;2022-12-29T02:43:50;100192.58;;;4.66;77.78
50682;BME280;36779;52.168;20.878;2022-12-29T02:49:10;100195.02;;;4.64;77.78
50682;BME280;36779;52.168;20.878;2022-12-29T02:54:26;100194.13;;;4.56;77.74
50682;BME280;36779;52.168;20.878;2022-12-29T02:57:14;100192.02;;;4.52;77.79
50682;BME280;36779;52.168;20.878;2022-12-29T02:59:42;100196.70;;;4.46;77.67
50682;BME280;36779;52.168;20.878;2022-12-29T03:07:46;100195.56;;;4.33;77.47
50682;BME280;36779;52.168;20.878;2022-12-29T03:10:25;100195.55;;;4.31;77.68
50682;BME280;36779;52.168;20.878;2022-12-29T03:12:56;100192.17;;;4.31;77.71
50682;BME280;36779;52.168;20.878;2022-12-29T03:15:50;100188.91;;;4.30;77.67
50682;BME280;36779;52.168;20.878;2022-12-29T03:18:34;100181.18;;;4.30;77.71
50682;BME280;36779;52.168;20.878;2022-12-29T03:21:09;100180.05;;;4.31;77.70
50682;BME280;36779;52.168;20.878;2022-12-29T03:23:39;100173.17;;;4.29;77.75
50682;BME280;36779;52.168;20.878;2022-12-29T03:26:09;100159.68;;;4.26;77.73
50682;BME280;36779;52.168;20.878;2022-12-29T03:28:39;100160.02;;;4.22;77.71
50682;BME280;36779;52.168;20.878;2022-12-29T03:31:08;100160.35;;;4.16;77.76
50682;BME280;36779;52.168;20.878;2022-12-29T03:33:39;100155.84;;;4.11;77.72
50682;BME280;36779;52.168;20.878;2022-12-29T03:36:10;100138.02;;;4.05;77.69
50682;BME280;36779;52.168;20.878;2022-12-29T03:38:41;100110.92;;;3.99;77.64
50682;BME280;36779;52.168;20.878;2022-12-29T03:41:13;100103.23;;;3.92;77.56
50682;BME280;36779;52.168;20.878;2022-12-29T03:43:44;100108.52;;;3.87;77.46
50682;BME280;36779;52.168;20.878;2022-12-29T03:46:13;100144.20;;;3.83;77.56
50682;BME280;36779;52.168;20.878;2022-12-29T03:48:42;100136.70;;;3.81;77.51
50682;BME280;36779;52.168;20.878;2022-12-29T03:51:10;100131.91;;;3.79;77.60
50682;BME280;36779;52.168;20.878;2022-12-29T03:53:37;100126.07;;;3.79;77.58
50682;BME280;36779;52.168;20.878;2022-12-29T03:56:06;100114.69;;;3.78;77.72
50682;BME280;36779;52.168;20.878;2022-12-29T03:58:34;100107.36;;;3.78;77.78
50682;BME280;36779;52.168;20.878;2022-12-29T04:01:15;100109.41;;;3.74;77.63
50682;BME280;36779;52.168;20.878;2022-12-29T04:03:44;100110.55;;;3.71;77.74
50682;BME280;36779;52.168;20.878;2022-12-29T04:06:12;100111.85;;;3.68;77.80
50682;BME280;36779;52.168;20.878;2022-12-29T04:08:47;100104.44;;;3.65;77.83
50682;BME280;36779;52.168;20.878;2022-12-29T04:11:15;100109.81;;;3.59;77.72
50682;BME280;36779;52.168;20.878;2022-12-29T04:13:42;100104.28;;;3.53;77.78
50682;BME280;36779;52.168;20.878;2022-12-29T04:16:14;100098.77;;;3.50;77.83
50682;BME280;36779;52.168;20.878;2022-12-29T04:18:42;100111.83;;;3.49;77.74
50682;BME280;36779;52.168;20.878;2022-12-29T04:21:10;100109.77;;;3.48;77.86
50682;BME280;36779;52.168;20.878;2022-12-29T04:23:40;100107.56;;;3.49;77.72
50682;BME280;36779;52.168;20.878;2022-12-29T04:26:10;100107.98;;;3.51;77.78
50682;BME280;36779;52.168;20.878;2022-12-29T04:28:56;100111.38;;;3.54;77.70
50682;BME280;36779;52.168;20.878;2022-12-29T04:31:38;100110.01;;;3.57;77.90
50682;BME280;36779;52.168;20.878;2022-12-29T04:34:06;100103.69;;;3.59;77.93
50682;BME280;36779;52.168;20.878;2022-12-29T04:36:34;100089.36;;;3.58;77.91
50682;BME280;36779;52.168;20.878;2022-12-29T04:39:02;100082.13;;;3.55;77.91
50682;BME280;36779;52.168;20.878;2022-12-29T04:41:33;100080.48;;;3.52;77.87
50682;BME280;36779;52.168;20.878;2022-12-29T04:44:02;100086.65;;;3.50;77.89
50682;BME280;36779;52.168;20.878;2022-12-29T04:46:33;100081.98;;;3.46;77.89
50682;BME280;36779;52.168;20.878;2022-12-29T04:49:07;100085.70;;;3.44;77.93
50682;BME280;36779;52.168;20.878;2022-12-29T04:51:58;100083.46;;;3.41;77.93
50682;BME280;36779;52.168;20.878;2022-12-29T04:54:26;100082.10;;;3.41;77.88
50682;BME280;36779;52.168;20.878;2022-12-29T04:57:00;100080.63;;;3.42;77.88
50682;BME280;36779;52.168;20.878;2022-12-29T04:59:28;100070.70;;;3.43;77.95
50682;BME280;36779;52.168;20.878;2022-12-29T05:01:58;100064.46;;;3.44;77.74
50682;BME280;36779;52.168;20.878;2022-12-29T05:04:26;100066.44;;;3.45;77.93
50682;BME280;36779;52.168;20.878;2022-12-29T05:06:54;100057.57;;;3.46;77.86
50682;BME280;36779;52.168;20.878;2022-12-29T05:09:22;100057.28;;;3.48;77.93
50682;BME280;36779;52.168;20.878;2022-12-29T05:11:51;100059.76;;;3.47;77.87
50682;BME280;36779;52.168;20.878;2022-12-29T05:14:19;100056.02;;;3.46;77.87
50682;BME280;36779;52.168;20.878;2022-12-29T05:16:47;100054.41;;;3.44;77.95
50682;BME280;36779;52.168;20.878;2022-12-29T05:19:15;100058.86;;;3.41;77.94
50682;BME280;36779;52.168;20.878;2022-12-29T05:21:46;100062.73;;;3.39;77.92
50682;BME280;36779;52.168;20.878;2022-12-29T05:24:13;100055.78;;;3.36;77.94
50682;BME280;36779;52.168;20.878;2022-12-29T05:26:43;100052.67;;;3.33;77.85
50682;BME280;36779;52.168;20.878;2022-12-29T05:29:31;100051.54;;;3.30;77.97
50682;BME280;36779;52.168;20.878;2022-12-29T05:31:58;100050.13;;;3.28;77.89
50682;BME280;36779;52.168;20.878;2022-12-29T05:34:27;100031.61;;;3.26;77.94
50682;BME280;36779;52.168;20.878;2022-12-29T05:36:55;100036.36;;;3.26;77.92
50682;BME280;36779;52.168;20.878;2022-12-29T05:39:24;100027.52;;;3.27;78.05
50682;BME280;36779;52.168;20.878;2022-12-29T05:41:56;100032.71;;;3.30;77.90
50682;BME280;36779;52.168;20.878;2022-12-29T05:44:36;100028.45;;;3.33;77.88
50682;BME280;36779;52.168;20.878;2022-12-29T05:47:09;100029.80;;;3.36;77.93
50682;BME280;36779;52.168;20.878;2022-12-29T05:49:50;100031.81;;;3.39;77.93
50682;BME280;36779;52.168;20.878;2022-12-29T05:52:51;100026.98;;;3.40;78.00
50682;BME280;36779;52.168;20.878;2022-12-29T05:55:19;100034.73;;;3.40;77.99
50682;BME280;36779;52.168;20.878;2022-12-29T05:57:49;100033.73;;;3.39;77.87
50682;BME280;36779;52.168;20.878;2022-12-29T06:00:17;100032.45;;;3.38;77.96
50682;BME280;36779;52.168;20.878;2022-12-29T06:02:46;100034.23;;;3.38;78.09
50682;BME280;36779;52.168;20.878;2022-12-29T06:05:16;100028.70;;;3.37;77.92
50682;BME280;36779;52.168;20.878;2022-12-29T06:07:44;100033.29;;;3.36;78.01
50682;BME280;36779;52.168;20.878;2022-12-29T06:10:15;100036.00;;;3.35;78.04
50682;BME280;36779;52.168;20.878;2022-12-29T06:12:47;100038.47;;;3.35;78.05
50682;BME280;36779;52.168;20.878;2022-12-29T06:15:15;100041.83;;;3.35;78.02
50682;BME280;36779;52.168;20.878;2022-12-29T06:17:44;100046.32;;;3.36;77.94
50682;BME280;36779;52.168;20.878;2022-12-29T06:20:13;100034.65;;;3.37;78.11
50682;BME280;36779;52.168;20.878;2022-12-29T06:22:41;100026.77;;;3.39;77.93
50682;BME280;36779;52.168;20.878;2022-12-29T06:25:09;100025.99;;;3.42;77.95
50682;BME280;36779;52.168;20.878;2022-12-29T06:27:38;100026.05;;;3.45;77.95
50682;BME280;36779;52.168;20.878;2022-12-29T06:30:09;100035.11;;;3.50;78.03
50682;BME280;36779;52.168;20.878;2022-12-29T06:32:38;100039.72;;;3.56;77.99
50682;BME280;36779;52.168;20.878;2022-12-29T06:35:09;100036.42;;;3.60;78.12
50682;BME280;36779;52.168;20.878;2022-12-29T06:37:42;100032.15;;;3.63;78.10
50682;BME280;36779;52.168;20.878;2022-12-29T06:40:10;100033.48;;;3.66;78.13
50682;BME280;36779;52.168;20.878;2022-12-29T06:42:57;100035.59;;;3.68;78.15
50682;BME280;36779;52.168;20.878;2022-12-29T06:45:56;100042.12;;;3.70;78.15
50682;BME280;36779;52.168;20.878;2022-12-29T06:48:24;100044.54;;;3.73;78.10
50682;BME280;36779;52.168;20.878;2022-12-29T06:50:52;100044.23;;;3.74;78.14
50682;BME280;36779;52.168;20.878;2022-12-29T06:53:19;100041.11;;;3.76;78.09
50682;BME280;36779;52.168;20.878;2022-12-29T06:55:47;100042.77;;;3.77;78.07
50682;BME280;36779;52.168;20.878;2022-12-29T06:58:15;100035.04;;;3.77;78.18
50682;BME280;36779;52.168;20.878;2022-12-29T07:00:44;100033.48;;;3.79;78.04
50682;BME280;36779;52.168;20.878;2022-12-29T07:03:12;100026.65;;;3.81;78.04
50682;BME280;36779;52.168;20.878;2022-12-29T07:05:40;100021.83;;;3.84;78.12
50682;BME280;36779;52.168;20.878;2022-12-29T07:08:08;100016.10;;;3.89;78.26
50682;BME280;36779;52.168;20.878;2022-12-29T07:10:36;100018.61;;;3.95;78.13
50682;BME280;36779;52.168;20.878;2022-12-29T07:13:04;100016.15;;;4.01;78.20
50682;BME280;36779;52.168;20.878;2022-12-29T07:15:32;100011.95;;;4.05;78.18
50682;BME280;36779;52.168;20.878;2022-12-29T07:17:59;100014.84;;;4.09;78.20
50682;BME280;36779;52.168;20.878;2022-12-29T07:20:29;100011.46;;;4.11;78.17
50682;BME280;36779;52.168;20.878;2022-12-29T07:22:57;100012.89;;;4.12;78.14
50682;BME280;36779;52.168;20.878;2022-12-29T07:25:25;100011.44;;;4.13;78.10
50682;BME280;36779;52.168;20.878;2022-12-29T07:27:53;100013.63;;;4.14;78.13
50682;BME280;36779;52.168;20.878;2022-12-29T07:30:21;100012.91;;;4.14;78.17
50682;BME280;36779;52.168;20.878;2022-12-29T07:32:48;100020.00;;;4.16;78.09
50682;BME280;36779;52.168;20.878;2022-12-29T07:35:16;100024.86;;;4.17;78.09
50682;BME280;36779;52.168;20.878;2022-12-29T07:37:44;100020.77;;;4.17;78.10
50682;BME280;36779;52.168;20.878;2022-12-29T07:40:12;100018.35;;;4.19;78.16
50682;BME280;36779;52.168;20.878;2022-12-29T07:42:40;100022.64;;;4.20;78.03
50682;BME280;36779;52.168;20.878;2022-12-29T07:45:10;100018.28;;;4.22;78.12
50682;BME280;36779;52.168;20.878;2022-12-29T07:48:01;100023.61;;;4.23;78.11
50682;BME280;36779;52.168;20.878;2022-12-29T07:50:29;100019.33;;;4.26;78.14
50682;BME280;36779;52.168;20.878;2022-12-29T07:52:57;100021.16;;;4.29;78.08
50682;BME280;36779;52.168;20.878;2022-12-29T07:55:25;100015.11;;;4.34;77.95
50682;BME280;36779;52.168;20.878;2022-12-29T07:57:53;100020.52;;;4.39;78.07
50682;BME280;36779;52.168;20.878;2022-12-29T08:00:22;100013.39;;;4.44;78.03
50682;BME280;36779;52.168;20.878;2022-12-29T08:02:52;100010.84;;;4.49;78.03
50682;BME280;36779;52.168;20.878;2022-12-29T08:05:19;100003.18;;;4.54;78.10
50682;BME280;36779;52.168;20.878;2022-12-29T08:07:48;100002.58;;;4.59;78.10
50682;BME280;36779;52.168;20.878;2022-12-29T08:10:16;100004.17;;;4.65;78.19
50682;BME280;36779;52.168;20.878;2022-12-29T08:12:44;99997.23;;;4.70;78.19
50682;BME280;36779;52.168;20.878;2022-12-29T08:15:11;99998.08;;;4.74;78.24
50682;BME280;36779;52.168;20.878;2022-12-29T08:17:39;99996.21;;;4.78;78.13
50682;BME280;36779;52.168;20.878;2022-12-29T08:20:08;99997.02;;;4.81;78.10
50682;BME280;36779;52.168;20.878;2022-12-29T08:22:36;99996.37;;;4.84;78.14
50682;BME280;36779;52.168;20.878;2022-12-29T08:25:04;99996.33;;;4.88;78.18
50682;BME280;36779;52.168;20.878;2022-12-29T08:27:32;99998.92;;;4.93;78.12
50682;BME280;36779;52.168;20.878;2022-12-29T08:30:00;99999.91;;;4.98;78.10
50682;BME280;36779;52.168;20.878;2022-12-29T08:32:28;100000.76;;;5.02;78.13
50682;BME280;36779;52.168;20.878;2022-12-29T08:34:56;99999.83;;;5.07;78.18
50682;BME280;36779;52.168;20.878;2022-12-29T08:37:24;100002.11;;;5.10;78.10
50682;BME280;36779;52.168;20.878;2022-12-29T08:39:57;100011.27;;;5.14;78.01
50682;BME280;36779;52.168;20.878;2022-12-29T08:42:27;100016.45;;;5.20;78.11
50682;BME280;36779;52.168;20.878;2022-12-29T08:44:58;100020.33;;;5.25;78.03
50682;BME280;36779;52.168;20.878;2022-12-29T08:47:26;100025.98;;;5.33;78.03
50682;BME280;36779;52.168;20.878;2022-12-29T08:49:54;100026.14;;;5.41;78.03
50682;BME280;36779;52.168;20.878;2022-12-29T08:52:21;100025.30;;;5.49;77.98
50682;BME280;36779;52.168;20.878;2022-12-29T08:54:51;100022.05;;;5.55;78.00
50682;BME280;36779;52.168;20.878;2022-12-29T08:57:18;100017.17;;;5.60;78.12
50682;BME280;36779;52.168;20.878;2022-12-29T09:00:00;100010.52;;;5.66;78.02
50682;BME280;36779;52.168;20.878;2022-12-29T09:02:28;100015.86;;;5.69;78.07
50682;BME280;36779;52.168;20.878;2022-12-29T09:04:56;100017.54;;;5.72;77.99
50682;BME280;36779;52.168;20.878;2022-12-29T09:07:24;100015.20;;;5.75;77.94
50682;BME280;36779;52.168;20.878;2022-12-29T09:09:52;100011.30;;;5.77;78.00
50682;BME280;36779;52.168;20.878;2022-12-29T09:12:20;100006.59;;;5.78;77.88
50682;BME280;36779;52.168;20.878;2022-12-29T09:14:47;100005.40;;;5.79;78.00
50682;BME280;36779;52.168;20.878;2022-12-29T09:17:15;100002.52;;;5.82;77.88
50682;BME280;36779;52.168;20.878;2022-12-29T09:20:02;100000.82;;;5.85;77.99
50682;BME280;36779;52.168;20.878;2022-12-29T09:22:30;99997.01;;;5.90;78.02
50682;BME280;36779;52.168;20.878;2022-12-29T09:24:58;99996.02;;;5.96;77.99
50682;BME280;36779;52.168;20.878;2022-12-29T09:27:26;99998.73;;;6.00;77.98
50682;BME280;36779;52.168;20.878;2022-12-29T09:29:54;99997.51;;;6.04;77.96
50682;BME280;36779;52.168;20.878;2022-12-29T09:32:21;100002.63;;;6.08;77.91
50682;BME280;36779;52.168;20.878;2022-12-29T09:34:51;99995.83;;;6.11;77.93
50682;BME280;36779;52.168;20.878;2022-12-29T09:37:19;99996.62;;;6.16;77.96
50682;BME280;36779;52.168;20.878;2022-12-29T09:39:47;99997.66;;;6.21;77.88
50682;BME280;36779;52.168;20.878;2022-12-29T09:42:23;99995.64;;;6.28;77.76
50682;BME280;36779;52.168;20.878;2022-12-29T09:44:55;99990.50;;;6.34;77.83
50682;BME280;36779;52.168;20.878;2022-12-29T09:47:28;99988.87;;;6.38;77.75
50682;BME280;36779;52.168;20.878;2022-12-29T09:49:58;99983.89;;;6.40;77.78
50682;BME280;36779;52.168;20.878;2022-12-29T09:52:30;99979.45;;;6.42;77.73
50682;BME280;36779;52.168;20.878;2022-12-29T09:55:00;99980.66;;;6.43;77.67
50682;BME280;36779;52.168;20.878;2022-12-29T09:57:38;99973.52;;;6.42;77.66
50682;BME280;36779;52.168;20.878;2022-12-29T10:00:11;99970.80;;;6.41;77.73
50682;BME280;36779;52.168;20.878;2022-12-29T10:02:40;99976.13;;;6.41;77.60
50682;BME280;36779;52.168;20.878;2022-12-29T10:05:14;99972.45;;;6.40;77.56
50682;BME280;36779;52.168;20.878;2022-12-29T10:07:45;99969.17;;;6.39;77.62
50682;BME280;36779;52.168;20.878;2022-12-29T10:10:19;99965.64;;;6.39;77.61
50682;BME280;36779;52.168;20.878;2022-12-29T10:12:54;99962.65;;;6.41;77.51
50682;BME280;36779;52.168;20.878;2022-12-29T10:15:38;99960.02;;;6.43;77.56
50682;BME280;36779;52.168;20.878;2022-12-29T10:18:11;99961.70;;;6.46;77.50
50682;BME280;36779;52.168;20.878;2022-12-29T10:20:46;99956.08;;;6.49;77.48
50682;BME280;36779;52.168;20.878;2022-12-29T10:23:21;99957.52;;;6.50;77.51
50682;BME280;36779;52.168;20.878;2022-12-29T10:25:50;99953.88;;;6.50;77.50
50682;BME280;36779;52.168;20.878;2022-12-29T10:28:21;99947.88;;;6.50;77.47
50682;BME280;36779;52.168;20.878;2022-12-29T10:30:49;99950.69;;;6.50;77.66
50682;BME280;36779;52.168;20.878;2022-12-29T10:33:19;99953.36;;;6.51;77.55
50682;BME280;36779;52.168;20.878;2022-12-29T10:35:50;99956.53;;;6.53;77.56
50682;BME280;36779;52.168;20.878;2022-12-29T10:38:20;99952.27;;;6.55;77.60
50682;BME280;36779;52.168;20.878;2022-12-29T10:40:53;99947.96;;;6.60;77.70
50682;BME280;36779;52.168;20.878;2022-12-29T10:43:25;99944.88;;;6.64;77.69
50682;BME280;36779;52.168;20.878;2022-12-29T10:45:53;99940.95;;;6.68;77.56
50682;BME280;36779;52.168;20.878;2022-12-29T10:48:22;99937.25;;;6.72;77.66
50682;BME280;36779;52.168;20.878;2022-12-29T10:50:58;99936.50;;;6.76;77.62
50682;BME280;36779;52.168;20.878;2022-12-29T10:53:33;99936.65;;;6.80;77.65
50682;BME280;36779;52.168;20.878;2022-12-29T10:56:03;99934.54;;;6.83;77.58
50682;BME280;36779;52.168;20.878;2022-12-29T10:58:33;99934.34;;;6.88;77.58
50682;BME280;36779;52.168;20.878;2022-12-29T11:01:01;99932.95;;;6.91;77.55
50682;BME280;36779;52.168;20.878;2022-12-29T11:03:37;99931.87;;;6.95;77.45
50682;BME280;36779;52.168;20.878;2022-12-29T11:06:09;99933.52;;;7.00;77.47
50682;BME280;36779;52.168;20.878;2022-12-29T11:08:39;99934.05;;;7.05;77.40
50682;BME280;36779;52.168;20.878;2022-12-29T11:11:10;99932.05;;;7.09;77.51
50682;BME280;36779;52.168;20.878;2022-12-29T11:13:47;99934.28;;;7.13;77.43
50682;BME280;36779;52.168;20.878;2022-12-29T11:16:15;99929.29;;;7.16;77.40
50682;BME280;36779;52.168;20.878;2022-12-29T11:18:54;99925.88;;;7.18;77.40
50682;BME280;36779;52.168;20.878;2022-12-29T11:21:24;99918.52;;;7.19;77.41
50682;BME280;36779;52.168;20.878;2022-12-29T11:23:55;99916.59;;;7.21;77.51
50682;BME280;36779;52.168;20.878;2022-12-29T11:26:24;99919.34;;;7.21;77.43
50682;BME280;36779;52.168;20.878;2022-12-29T11:29:16;99918.64;;;7.23;77.38
50682;BME280;36779;52.168;20.878;2022-12-29T11:31:45;99918.14;;;7.24;77.36
50682;BME280;36779;52.168;20.878;2022-12-29T11:34:17;99922.63;;;7.26;77.34
50682;BME280;36779;52.168;20.878;2022-12-29T11:36:45;99932.16;;;7.26;77.32
50682;BME280;36779;52.168;20.878;2022-12-29T11:39:23;99931.77;;;7.24;77.29
50682;BME280;36779;52.168;20.878;2022-12-29T11:41:53;99924.88;;;7.24;77.29
50682;BME280;36779;52.168;20.878;2022-12-29T11:44:21;99922.59;;;7.24;77.31
50682;BME280;36779;52.168;20.878;2022-12-29T11:46:50;99924.02;;;7.24;77.27
50682;BME280;36779;52.168;20.878;2022-12-29T11:49:19;99919.91;;;7.24;77.26
50682;BME280;36779;52.168;20.878;2022-12-29T11:51:48;99922.45;;;7.25;77.27
50682;BME280;36779;52.168;20.878;2022-12-29T11:54:17;99922.52;;;7.27;77.33
50682;BME280;36779;52.168;20.878;2022-12-29T11:56:46;99927.16;;;7.28;77.28
50682;BME280;36779;52.168;20.878;2022-12-29T11:59:24;99918.52;;;7.29;77.32
50682;BME280;36779;52.168;20.878;2022-12-29T12:01:52;99913.69;;;7.34;77.46
50682;BME280;36779;52.168;20.878;2022-12-29T12:04:21;99908.58;;;7.37;77.47
50682;BME280;36779;52.168;20.878;2022-12-29T12:06:53;99904.49;;;7.41;77.51
50682;BME280;36779;52.168;20.878;2022-12-29T12:09:27;99903.41;;;7.47;77.43
50682;BME280;36779;52.168;20.878;2022-12-29T12:11:57;99905.05;;;7.51;77.45
50682;BME280;36779;52.168;20.878;2022-12-29T12:14:29;99903.23;;;7.57;77.44
50682;BME280;36779;52.168;20.878;2022-12-29T12:17:09;99907.05;;;7.63;77.24
50682;BME280;36779;52.168;20.878;2022-12-29T12:19:40;99906.33;;;7.68;77.12
50682;BME280;36779;52.168;20.878;2022-12-29T12:22:12;99901.15;;;7.72;77.19
50682;BME280;36779;52.168;20.878;2022-12-29T12:24:42;99904.09;;;7.75;77.28
50682;BME280;36779;52.168;20.878;2022-12-29T12:27:13;99902.54;;;7.76;77.26
50682;BME280;36779;52.168;20.878;2022-12-29T12:29:45;99898.90;;;7.77;77.23
50682;BME280;36779;52.168;20.878;2022-12-29T12:32:15;99894.02;;;7.78;77.20
50682;BME280;36779;52.168;20.878;2022-12-29T12:34:45;99889.45;;;7.78;77.16
50682;BME280;36779;52.168;20.878;2022-12-29T12:37:24;99886.42;;;7.78;77.14
50682;BME280;36779;52.168;20.878;2022-12-29T12:40:02;99880.27;;;7.79;77.27
50682;BME280;36779;52.168;20.878;2022-12-29T12:42:36;99881.08;;;7.82;77.26
50682;BME280;36779;52.168;20.878;2022-12-29T12:45:17;99871.61;;;7.85;77.12
50682;BME280;36779;52.168;20.878;2022-12-29T12:47:57;99867.37;;;7.86;77.18
50682;BME280;36779;52.168;20.878;2022-12-29T12:50:34;99870.73;;;7.88;77.10
50682;BME280;36779;52.168;20.878;2022-12-29T12:53:11;99864.06;;;7.89;77.20
50682;BME280;36779;52.168;20.878;2022-12-29T12:55:52;99867.14;;;7.90;77.12
50682;BME280;36779;52.168;20.878;2022-12-29T12:58:26;99864.95;;;7.91;77.04
50682;BME280;36779;52.168;20.878;2022-12-29T13:01:01;99865.29;;;7.91;77.07
50682;BME280;36779;52.168;20.878;2022-12-29T13:03:38;99865.97;;;7.91;77.05
50682;BME280;36779;52.168;20.878;2022-12-29T13:06:15;99874.16;;;7.92;76.90
50682;BME280;36779;52.168;20.878;2022-12-29T13:11:39;99873.80;;;7.92;76.97
50682;BME280;36779;52.168;20.878;2022-12-29T13:14:17;99879.21;;;7.93;76.96
50682;BME280;36779;52.168;20.878;2022-12-29T13:16:50;99879.70;;;7.94;76.95
50682;BME280;36779;52.168;20.878;2022-12-29T13:19:23;99886.20;;;7.92;76.97
50682;BME280;36779;52.168;20.878;2022-12-29T13:21:58;99887.97;;;7.92;76.93
50682;BME280;36779;52.168;20.878;2022-12-29T13:24:36;99884.23;;;7.93;76.92
50682;BME280;36779;52.168;20.878;2022-12-29T13:27:11;99883.39;;;7.92;76.96
50682;BME280;36779;52.168;20.878;2022-12-29T13:29:43;99884.52;;;7.92;76.98